Time;durP1;ratioP1;P1;durP2;ratioP2;P2;SDS_P1;SDS_P2;PMS_P1;PMS_P2;Temp;Humidity;BMP_temperature;BMP_pressure;BME280_temperature;BME280_humidity;BME280_pressure;Samples;Min_cycle;Max_cycle;Signal;HPM_P1;HPM_P2
2023/04/19 00:02:15;;;;;;;0.50;0.50;;;;;;;12.06;100.00;98982.00;5030587;28;20665;-67
2023/04/19 00:04:44;;;;;;;0.50;0.50;;;;;;;11.97;100.00;98963.56;5028911;28;20230;-67
2023/04/19 00:07:12;;;;;;;0.50;0.50;;;;;;;12.02;100.00;98974.47;5022557;28;20193;-67
2023/04/19 00:09:39;;;;;;;0.40;0.40;;;;;;;12.01;100.00;98968.53;5028493;28;20205;-67
2023/04/19 00:12:06;;;;;;;0.40;0.40;;;;;;;12.01;100.00;98967.69;5021723;28;20688;-68
2023/04/19 00:14:33;;;;;;;0.50;0.50;;;;;;;12.02;100.00;98964.19;5017748;28;20705;-67
2023/04/19 00:16:59;;;;;;;0.53;0.53;;;;;;;11.98;100.00;98962.69;5023116;28;20204;-67
2023/04/19 00:19:26;;;;;;;0.40;0.40;;;;;;;11.96;100.00;98960.16;5031032;28;20220;-67
2023/04/19 00:21:54;;;;;;;0.40;0.40;;;;;;;11.91;100.00;98958.69;5029141;28;20227;-66
2023/04/19 00:24:21;;;;;;;0.50;0.50;;;;;;;11.92;100.00;98957.81;5027069;28;20212;-67
2023/04/19 00:30:10;;;;;;;0.50;0.50;;;;;;;11.86;100.00;98950.34;5031971;28;20168;-67
2023/04/19 00:32:37;;;;;;;0.70;0.70;;;;;;;11.87;100.00;98944.31;5016056;28;20201;-67
2023/04/19 00:35:04;;;;;;;0.50;0.50;;;;;;;11.82;100.00;98947.09;5020406;28;20202;-67
2023/04/19 00:37:32;;;;;;;0.43;0.43;;;;;;;11.81;100.00;98939.44;5014427;28;20645;-67
2023/04/19 00:39:59;;;;;;;0.60;0.60;;;;;;;11.80;100.00;98942.91;5015693;28;20220;-68
2023/04/19 00:42:25;;;;;;;0.50;0.50;;;;;;;11.78;100.00;98939.56;5023318;28;20209;-67
2023/04/19 00:44:52;;;;;;;0.60;0.60;;;;;;;11.78;100.00;98937.00;5024465;28;20201;-67
2023/04/19 00:47:19;;;;;;;0.53;0.53;;;;;;;11.80;100.00;98942.91;5018482;28;20204;-67
2023/04/19 00:49:46;;;;;;;0.50;0.50;;;;;;;11.82;100.00;98936.81;5024411;28;20263;-67
2023/04/19 00:52:13;;;;;;;0.50;0.50;;;;;;;11.80;100.00;98932.63;5021197;28;20252;-67
2023/04/19 00:54:45;;;;;;;0.50;0.50;;;;;;;11.87;100.00;98940.00;5026969;28;20208;-67
2023/04/19 00:57:11;;;;;;;0.40;0.40;;;;;;;11.87;100.00;98939.16;5026673;28;20201;-67
2023/04/19 00:59:39;;;;;;;0.77;0.77;;;;;;;11.90;100.00;98944.19;5023676;28;20217;-68
2023/04/19 01:02:06;;;;;;;0.67;0.67;;;;;;;11.91;100.00;98943.28;5021456;28;20213;-68
2023/04/19 01:04:33;;;;;;;0.60;0.60;;;;;;;11.92;100.00;98937.25;5031062;28;20744;-66
2023/04/19 01:07:00;;;;;;;0.40;0.40;;;;;;;11.82;100.00;98920.56;5015346;28;20675;-67
2023/04/19 01:09:26;;;;;;;0.63;0.63;;;;;;;11.90;100.00;98923.63;5019747;28;20197;-67
2023/04/19 01:11:54;;;;;;;0.60;0.60;;;;;;;11.93;100.00;98934.59;5016616;28;20267;-67
2023/04/19 01:14:21;;;;;;;0.50;0.50;;;;;;;11.91;100.00;98930.44;5029760;28;20206;-67
2023/04/19 01:16:49;;;;;;;0.50;0.50;;;;;;;11.92;100.00;98929.56;5018737;28;20201;-67
2023/04/19 01:19:17;;;;;;;0.40;0.40;;;;;;;11.89;100.00;98921.97;5028683;28;20217;-67
2023/04/19 01:21:45;;;;;;;0.53;0.53;;;;;;;11.90;100.00;98915.91;5020174;28;20198;-68
2023/04/19 01:24:13;;;;;;;0.50;0.50;;;;;;;11.86;100.00;98919.50;5029745;28;20201;-67
2023/04/19 01:26:40;;;;;;;0.40;0.40;;;;;;;11.85;100.00;98908.44;5020994;28;20197;-67
2023/04/19 01:29:06;;;;;;;0.53;0.53;;;;;;;11.77;100.00;98901.94;5022731;28;20190;-67
2023/04/19 01:31:34;;;;;;;0.50;0.50;;;;;;;11.82;100.00;98910.28;5023306;28;20226;-67
2023/04/19 01:34:00;;;;;;;0.40;0.40;;;;;;;11.81;100.00;98906.06;5013878;28;20203;-67
2023/04/19 01:36:27;;;;;;;0.50;0.50;;;;;;;11.82;100.00;98905.16;5015086;28;20202;-67
2023/04/19 01:38:55;;;;;;;0.60;0.60;;;;;;;11.75;100.00;98890.91;5014715;28;20248;-67
2023/04/19 01:41:25;;;;;;;0.60;0.60;;;;;;;11.79;100.00;98900.16;5023222;28;20202;-67
2023/04/19 01:43:52;;;;;;;0.43;0.43;;;;;;;11.81;100.00;98898.34;5031733;28;20205;-66
2023/04/19 01:46:19;;;;;;;0.60;0.60;;;;;;;11.79;100.00;98897.59;5026781;28;20710;-67
2023/04/19 01:48:46;;;;;;;0.40;0.40;;;;;;;11.78;100.00;98894.19;5021692;28;20559;-67
2023/04/19 01:51:12;;;;;;;0.50;0.50;;;;;;;11.77;100.00;98886.53;5020909;28;20675;-67
2023/04/19 01:53:39;;;;;;;0.50;0.50;;;;;;;11.70;100.00;98879.94;5021350;28;20270;-67
2023/04/19 01:56:06;;;;;;;0.40;0.40;;;;;;;11.68;100.00;98879.19;5027902;28;20209;-66
2023/04/19 01:58:34;;;;;;;0.50;0.50;;;;;;;11.73;100.00;98882.44;5034475;28;20220;-67
2023/04/19 02:01:01;;;;;;;0.57;0.57;;;;;;;11.70;100.00;98885.97;5031184;28;20214;-66
2023/04/19 02:03:28;;;;;;;0.50;0.50;;;;;;;11.67;100.00;98880.09;5015671;28;20206;-67
2023/04/19 02:05:55;;;;;;;0.57;0.57;;;;;;;11.63;100.00;98878.56;5027321;28;20227;-67
2023/04/19 02:08:21;;;;;;;0.57;0.57;;;;;;;11.62;100.00;98874.31;5033981;28;20209;-67
2023/04/19 02:10:48;;;;;;;0.50;0.50;;;;;;;11.59;100.00;98876.13;5034017;28;20201;-68
2023/04/19 02:13:15;;;;;;;0.40;0.40;;;;;;;11.60;100.00;98875.22;5033945;28;20592;-67
2023/04/19 02:15:43;;;;;;;0.50;0.50;;;;;;;11.55;100.00;98872.03;5034132;28;20674;-67
2023/04/19 02:18:10;;;;;;;0.33;0.33;;;;;;;11.54;100.00;98865.22;5033779;28;20581;-66
2023/04/19 02:20:37;;;;;;;0.40;0.40;;;;;;;11.58;100.00;98871.06;5033696;28;20731;-67
2023/04/19 02:23:04;;;;;;;0.43;0.43;;;;;;;11.59;100.00;98867.59;5033750;28;20288;-67
2023/04/19 02:25:31;;;;;;;0.60;0.60;;;;;;;11.56;100.00;98868.56;5033649;28;20201;-67
2023/04/19 02:27:57;;;;;;;0.63;0.63;;;;;;;11.57;100.00;98865.09;5033629;28;20202;-67
2023/04/19 02:30:24;;;;;;;0.50;0.50;;;;;;;11.51;100.00;98862.78;5033816;28;20205;-67
2023/04/19 02:32:53;;;;;;;0.60;0.60;;;;;;;11.50;100.00;98857.72;5033695;28;20649;-67
2023/04/19 02:35:20;;;;;;;0.50;0.50;;;;;;;11.44;100.00;98863.94;5033332;28;20201;-67
2023/04/19 02:37:47;;;;;;;0.83;0.83;;;;;;;11.45;100.00;98865.59;5033640;28;20677;-67
2023/04/19 02:40:14;;;;;;;0.53;0.53;;;;;;;11.45;100.00;98857.91;5033465;28;20225;-67
2023/04/19 02:42:41;;;;;;;0.50;0.50;;;;;;;11.49;100.00;98856.06;5033347;28;20304;-67
2023/04/19 02:45:09;;;;;;;0.50;0.50;;;;;;;11.51;100.00;98860.22;5032594;28;20209;-67
2023/04/19 02:47:36;;;;;;;0.60;0.60;;;;;;;11.57;100.00;98853.97;5033187;28;20208;-66
2023/04/19 02:50:05;;;;;;;0.60;0.60;;;;;;;11.62;100.00;98856.34;5033201;28;20193;-67
2023/04/19 02:52:31;;;;;;;0.50;0.50;;;;;;;11.65;100.00;98856.22;5032982;28;20201;-67
2023/04/19 02:54:58;;;;;;;0.60;0.60;;;;;;;11.67;100.00;98855.25;5032980;28;20208;-66
2023/04/19 02:57:25;;;;;;;0.60;0.60;;;;;;;11.70;100.00;98859.41;5033125;28;20685;-67
2023/04/19 02:59:52;;;;;;;0.60;0.60;;;;;;;11.72;100.00;98861.06;5032708;28;20213;-67
2023/04/19 03:02:18;;;;;;;0.50;0.50;;;;;;;11.68;100.00;98861.22;5032935;28;20272;-66
2023/04/19 03:04:46;;;;;;;0.50;0.50;;;;;;;11.64;100.00;98851.97;5032647;28;20217;-67
2023/04/19 03:07:14;;;;;;;0.43;0.43;;;;;;;11.70;100.00;98870.56;5032921;28;20209;-67
2023/04/19 03:09:53;;;;;;;0.57;0.57;;;;;;;11.68;100.00;98871.50;5032944;28;20290;-67
2023/04/19 03:12:29;;;;;;;0.60;0.60;;;;;;;11.66;100.00;98860.47;5032841;28;20205;-67
2023/04/19 03:14:56;;;;;;;0.47;0.47;;;;;;;11.64;100.00;98864.81;5032793;28;20589;-67
2023/04/19 03:17:23;;;;;;;0.40;0.40;;;;;;;11.66;100.00;98865.59;5032825;28;20697;-67
2023/04/19 03:19:50;;;;;;;0.50;0.50;;;;;;;11.64;100.00;98860.53;5032287;28;20272;-67
2023/04/19 03:22:18;;;;;;;0.50;0.50;;;;;;;11.61;100.00;98863.22;5032603;28;20212;-67
2023/04/19 03:24:44;;;;;;;0.50;0.50;;;;;;;11.54;100.00;98854.94;5032407;28;20205;-65
2023/04/19 03:27:11;;;;;;;0.60;0.60;;;;;;;11.54;100.00;98865.22;5032502;28;20198;-66
2023/04/19 03:29:38;;;;;;;0.40;0.40;;;;;;;11.51;100.00;98862.78;5032628;28;20210;-67
2023/04/19 03:32:05;;;;;;;0.40;0.40;;;;;;;11.53;100.00;98863.53;5032557;28;20193;-66
2023/04/19 03:34:32;;;;;;;0.50;0.50;;;;;;;11.52;100.00;98864.47;5032307;28;20197;-67
2023/04/19 03:37:01;;;;;;;0.50;0.50;;;;;;;11.51;100.00;98870.47;5032366;28;20296;-67
2023/04/19 03:39:29;;;;;;;0.50;0.50;;;;;;;11.50;100.00;98860.28;5032135;28;20201;-67
2023/04/19 03:41:56;;;;;;;0.50;0.50;;;;;;;11.52;100.00;98866.19;5030782;28;20212;-66
2023/04/19 03:44:22;;;;;;;0.50;0.50;;;;;;;11.52;100.00;98866.19;5032025;28;20275;-66
2023/04/19 03:46:49;;;;;;;0.50;0.50;;;;;;;11.53;100.00;98865.28;5032087;28;20567;-67
2023/04/19 03:49:16;;;;;;;0.60;0.60;;;;;;;11.49;100.00;98862.03;5031974;28;20574;-65
2023/04/19 03:51:42;;;;;;;0.40;0.40;;;;;;;11.47;100.00;98866.38;5031811;28;20259;-67
2023/04/19 03:54:09;;;;;;;0.50;0.50;;;;;;;11.46;100.00;98862.16;5032034;28;20212;-66
2023/04/19 03:56:38;;;;;;;0.50;0.50;;;;;;;11.47;100.00;98868.13;5031680;28;20201;-66
2023/04/19 03:59:04;;;;;;;0.50;0.50;;;;;;;11.51;100.00;98870.47;5032117;28;20585;-66
2023/04/19 04:01:33;;;;;;;0.50;0.50;;;;;;;11.52;100.00;98867.03;5032054;28;20235;-67
2023/04/19 04:04:00;;;;;;;0.50;0.50;;;;;;;11.55;100.00;98864.31;5012150;28;20220;-66
2023/04/19 04:06:26;;;;;;;0.60;0.60;;;;;;;11.51;100.00;98865.34;5015066;28;20247;-66
2023/04/19 04:08:53;;;;;;;0.43;0.43;;;;;;;11.47;100.00;98868.94;5022461;28;20206;-67
2023/04/19 04:11:20;;;;;;;0.60;0.60;;;;;;;11.43;100.00;98861.44;5016736;28;20255;-66
2023/04/19 04:13:49;;;;;;;0.40;0.40;;;;;;;11.41;100.00;98860.66;5020304;28;20205;-67
2023/04/19 04:16:16;;;;;;;0.40;0.40;;;;;;;11.38;100.00;98859.06;5018800;28;20198;-66
2023/04/19 04:18:42;;;;;;;0.63;0.63;;;;;;;11.39;100.00;98858.16;5026426;28;20209;-66
2023/04/19 04:21:09;;;;;;;0.50;0.50;;;;;;;11.37;100.00;98865.09;5027432;28;20287;-67
2023/04/19 04:23:36;;;;;;;0.40;0.40;;;;;;;11.37;100.00;98857.38;5031780;28;20288;-66
2023/04/19 04:26:04;;;;;;;0.47;0.47;;;;;;;11.28;100.00;98847.50;5019327;28;20236;-67
2023/04/19 04:28:32;;;;;;;0.40;0.40;;;;;;;11.42;100.00;98865.75;5014599;28;20659;-67
2023/04/19 04:31:00;;;;;;;0.50;0.50;;;;;;;11.40;100.00;98867.53;5021519;28;20285;-66
2023/04/19 04:33:27;;;;;;;0.40;0.40;;;;;;;11.44;100.00;98863.94;5017982;28;20236;-67
2023/04/19 04:35:56;;;;;;;0.50;0.50;;;;;;;11.44;100.00;98866.50;5016325;28;20206;-66
2023/04/19 04:38:23;;;;;;;0.47;0.47;;;;;;;11.48;100.00;98870.59;5026874;28;20201;-67
2023/04/19 04:40:52;;;;;;;0.50;0.50;;;;;;;11.51;100.00;98875.63;5026396;28;20261;-67
2023/04/19 04:43:19;;;;;;;0.40;0.40;;;;;;;11.57;100.00;98871.94;5029719;28;20697;-67
2023/04/19 04:45:46;;;;;;;0.43;0.43;;;;;;;11.62;100.00;98864.06;5030986;28;20204;-67
2023/04/19 04:48:14;;;;;;;0.40;0.40;;;;;;;11.67;100.00;98872.38;5020734;28;20202;-66
2023/04/19 04:50:41;;;;;;;0.40;0.40;;;;;;;11.68;100.00;98871.50;5023301;28;20678;-66
2023/04/19 04:53:08;;;;;;;0.40;0.40;;;;;;;11.71;100.00;98881.66;5018940;28;20225;-66
2023/04/19 04:55:35;;;;;;;0.30;0.30;;;;;;;11.74;100.00;98876.41;5018878;28;20628;-67
2023/04/19 04:58:04;;;;;;;0.60;0.60;;;;;;;11.83;100.00;98878.56;5018389;28;20210;-69
2023/04/19 05:00:31;;;;;;;0.50;0.50;;;;;;;11.93;100.00;98879.81;5021640;28;20666;-68
2023/04/19 05:02:58;;;;;;;0.60;0.60;;;;;;;11.93;100.00;98880.66;5020765;28;20293;-71
2023/04/19 05:05:26;;;;;;;0.47;0.47;;;;;;;11.96;100.00;98882.25;5020364;28;20229;-66
2023/04/19 05:07:53;;;;;;;0.50;0.50;;;;;;;11.99;100.00;98874.41;5021017;28;20197;-67
2023/04/19 05:10:20;;;;;;;0.43;0.43;;;;;;;11.98;100.00;98883.03;5023033;28;20206;-68
2023/04/19 05:12:46;;;;;;;0.50;0.50;;;;;;;12.02;100.00;98881.97;5022598;28;20696;-68
2023/04/19 05:15:13;;;;;;;0.50;0.50;;;;;;;12.08;100.00;98886.88;5024699;28;20583;-67
2023/04/19 05:17:41;;;;;;;0.50;0.50;;;;;;;12.15;100.00;98890.81;5023180;28;20616;-67
2023/04/19 05:20:09;;;;;;;0.60;0.60;;;;;;;12.17;100.00;98886.47;5022516;28;20202;-69
2023/04/19 05:22:37;;;;;;;0.50;0.50;;;;;;;12.26;100.00;98886.03;5023732;28;20209;-68
2023/04/19 05:25:05;;;;;;;0.50;0.50;;;;;;;12.31;100.00;98881.53;5005087;28;20208;-67
2023/04/19 05:27:32;;;;;;;0.60;0.60;;;;;;;12.33;100.00;98889.16;5024891;28;20240;-68
2023/04/19 05:29:59;;;;;;;0.53;0.53;;;;;;;12.38;100.00;98880.34;5022247;28;20575;-67
2023/04/19 05:32:26;;;;;;;0.60;0.60;;;;;;;12.39;100.00;98887.16;5020518;28;20202;-68
2023/04/19 05:34:53;;;;;;;0.40;0.40;;;;;;;12.42;100.00;98887.03;5025949;28;20206;-68
2023/04/19 05:37:20;;;;;;;0.50;0.50;;;;;;;12.42;100.00;98881.88;5027693;28;20197;-68
2023/04/19 05:39:48;;;;;;;0.57;0.57;;;;;;;12.45;100.00;98881.72;5014831;28;20217;-65
2023/04/19 05:42:15;;;;;;;0.40;0.40;;;;;;;12.48;100.00;98889.31;5023265;28;20233;-64
2023/04/19 05:44:41;;;;;;;0.50;0.50;;;;;;;12.49;100.00;98885.84;5027577;28;20267;-65
2023/04/19 05:47:08;;;;;;;0.40;0.40;;;;;;;12.52;100.00;98885.69;5022964;28;20205;-64
2023/04/19 05:49:35;;;;;;;0.43;0.43;;;;;;;12.56;100.00;98883.81;5030443;28;20296;-64
2023/04/19 05:52:02;;;;;;;0.57;0.57;;;;;;;12.64;100.00;98887.69;5034331;28;20732;-65
2023/04/19 05:54:33;;;;;;;0.57;0.57;;;;;;;12.76;100.00;98885.47;5034572;28;20213;-65
2023/04/19 05:57:01;;;;;;;0.40;0.40;;;;;;;12.80;100.00;98886.97;5034285;28;20201;-65
2023/04/19 05:59:28;;;;;;;0.47;0.47;;;;;;;12.86;100.00;98890.09;5034471;28;20205;-65
2023/04/19 06:01:55;;;;;;;0.60;0.60;;;;;;;12.99;100.00;98887.75;5034166;28;20652;-64
2023/04/19 06:04:21;;;;;;;0.40;0.40;;;;;;;13.04;100.00;98885.81;5029980;28;20226;-66
2023/04/19 06:06:48;;;;;;;0.50;0.50;;;;;;;13.10;100.00;98885.53;5027153;28;20216;-65
2023/04/19 06:09:16;;;;;;;0.57;0.57;;;;;;;13.23;100.00;98881.47;5026663;28;20200;-64
2023/04/19 06:11:43;;;;;;;0.53;0.53;;;;;;;13.32;100.00;98886.16;5021810;28;20686;-65
2023/04/19 06:14:12;;;;;;;0.50;0.50;;;;;;;13.24;100.00;98866.84;5027889;28;20697;-65
2023/04/19 06:16:39;;;;;;;0.67;0.67;;;;;;;13.40;100.00;98888.34;5021088;28;20204;-65
2023/04/19 06:19:06;;;;;;;0.50;0.50;;;;;;;13.55;100.00;98888.41;5020621;28;20256;-65
2023/04/19 06:21:33;;;;;;;0.60;0.60;;;;;;;13.84;100.00;98888.69;5026100;28;20260;-65
2023/04/19 06:24:00;;;;;;;0.50;0.50;;;;;;;14.25;100.00;98889.91;5032066;28;20692;-65
2023/04/19 06:26:27;;;;;;;0.50;0.50;;;;;;;14.51;100.00;98894.53;5029820;28;20215;-66
2023/04/19 06:28:54;;;;;;;0.60;0.60;;;;;;;14.77;100.00;98887.13;5023763;28;20202;-66
2023/04/19 06:31:22;;;;;;;0.60;0.60;;;;;;;14.92;100.00;98891.47;5030146;28;20282;-66
2023/04/19 06:33:48;;;;;;;0.50;0.50;;;;;;;14.97;100.00;98892.03;5028389;28;20202;-66
2023/04/19 06:36:15;;;;;;;0.60;0.60;;;;;;;15.09;100.00;98889.59;5028949;28;20203;-65
2023/04/19 06:38:43;;;;;;;0.60;0.60;;;;;;;15.16;100.00;98896.06;5019044;28;20656;-66
2023/04/19 06:41:10;;;;;;;0.50;0.50;;;;;;;15.16;100.00;98897.81;5023575;28;20643;-67
2023/04/19 06:43:38;;;;;;;0.50;0.50;;;;;;;15.14;100.00;98907.41;5025487;28;20198;-66
2023/04/19 06:46:05;;;;;;;0.53;0.53;;;;;;;15.02;100.00;98900.34;5025509;28;20674;-65
2023/04/19 06:48:34;;;;;;;0.50;0.50;;;;;;;15.00;100.00;98907.34;5017733;28;20205;-66
2023/04/19 06:51:00;;;;;;;0.50;0.50;;;;;;;14.97;100.00;98915.25;5026282;28;20577;-66
2023/04/19 06:53:27;;;;;;;0.50;0.50;;;;;;;14.99;100.00;98913.44;5023619;28;20204;-66
2023/04/19 06:55:59;;;;;;;0.53;0.53;;;;;;;14.91;100.00;98921.59;5024629;28;20201;-66
2023/04/19 06:58:26;;;;;;;0.50;0.50;;;;;;;14.96;100.00;98918.78;5024020;28;20674;-66
2023/04/19 07:00:53;;;;;;;0.50;0.50;;;;;;;15.02;100.00;98918.44;5026418;28;20221;-66
2023/04/19 07:03:20;;;;;;;0.60;0.60;;;;;;;15.05;100.00;98918.25;5023271;28;20251;-66
2023/04/19 07:05:48;;;;;;;0.53;0.53;;;;;;;15.05;100.00;98919.09;5032483;28;20559;-66
2023/04/19 07:08:15;;;;;;;0.60;0.60;;;;;;;15.08;100.00;98931.00;5032921;28;20673;-66
2023/04/19 07:10:42;;;;;;;0.40;0.40;;;;;;;15.10;100.00;98929.13;5032495;28;20215;-66
2023/04/19 07:13:10;;;;;;;0.50;0.50;;;;;;;15.08;100.00;98925.81;5032813;28;20228;-67
2023/04/19 07:15:37;;;;;;;0.40;0.40;;;;;;;15.08;100.00;98918.06;5032432;28;20197;-65
2023/04/19 07:18:04;;;;;;;0.30;0.30;;;;;;;15.15;100.00;98914.25;5032009;28;20224;-66
2023/04/19 07:20:31;;;;;;;0.50;0.50;;;;;;;15.14;100.00;98915.16;5032226;28;20200;-65
2023/04/19 07:22:59;;;;;;;0.60;0.60;;;;;;;15.28;100.00;98925.53;5032050;28;20762;-66
2023/04/19 07:25:27;;;;;;;0.47;0.47;;;;;;;15.46;100.00;98916.72;5032566;28;20622;-65
2023/04/19 07:27:54;;;;;;;0.40;0.40;;;;;;;15.33;100.00;98892.53;5032325;28;20206;-66
2023/04/19 07:30:21;;;;;;;0.50;0.50;;;;;;;15.67;100.00;98923.25;5032512;28;20192;-66
2023/04/19 07:32:50;;;;;;;0.50;0.50;;;;;;;16.00;100.00;98919.59;5031629;28;20205;-65
2023/04/19 07:35:17;;;;;;;0.50;0.50;;;;;;;16.28;100.00;98929.97;5032076;28;20204;-66
2023/04/19 07:37:43;;;;;;;0.70;0.70;;;;;;;16.46;100.00;98928.00;5031969;28;20578;-65
2023/04/19 07:40:13;;;;;;;0.30;0.30;;;;;;;16.61;100.00;98933.09;5032262;28;20205;-66
2023/04/19 07:42:39;;;;;;;0.50;0.50;;;;;;;16.77;100.00;98932.97;5032108;28;20283;-66
2023/04/19 07:45:07;;;;;;;0.50;0.50;;;;;;;17.01;100.00;98930.59;5031966;28;20201;-66
2023/04/19 07:47:34;;;;;;;0.60;0.60;;;;;;;17.20;100.00;98941.44;5031930;28;20763;-66
2023/04/19 07:50:01;;;;;;;0.50;0.50;;;;;;;17.23;99.48;98946.41;5031683;28;20571;-66
2023/04/19 07:52:28;;;;;;;0.50;0.50;;;;;;;17.27;99.68;98947.88;5031835;28;20197;-66
2023/04/19 07:54:55;;;;;;;0.43;0.43;;;;;;;17.35;99.36;98943.03;5031160;28;20216;-65
2023/04/19 07:57:23;;;;;;;0.73;0.73;;;;;;;17.41;98.90;98950.44;5031665;28;20263;-66
2023/04/19 07:59:50;;;;;;;0.50;0.50;;;;;;;17.39;94.40;98947.09;5031719;28;20205;-66
2023/04/19 08:02:17;;;;;;;0.40;0.40;;;;;;;17.34;96.67;98938.78;5031277;28;20232;-66
2023/04/19 08:04:47;;;;;;;0.47;0.47;;;;;;;17.24;97.11;98938.56;5031334;28;20229;-67
2023/04/19 08:07:13;;;;;;;0.50;0.50;;;;;;;17.30;99.46;98935.56;5026295;28;20224;-66
2023/04/19 08:09:40;;;;;;;0.50;0.50;;;;;;;17.25;98.51;98939.41;5028422;28;20673;-66
2023/04/19 08:12:07;;;;;;;0.60;0.60;;;;;;;17.48;100.00;98937.91;5020960;28;20194;-66
2023/04/19 08:14:37;;;;;;;0.50;0.50;;;;;;;17.78;100.00;98938.47;5029504;28;20204;-66
2023/04/19 08:17:04;;;;;;;0.40;0.40;;;;;;;17.95;100.00;98945.13;5026285;28;20197;-66
2023/04/19 08:19:31;;;;;;;0.50;0.50;;;;;;;17.88;99.04;98941.28;5024163;28;20209;-66
2023/04/19 08:21:58;;;;;;;0.50;0.50;;;;;;;18.00;95.71;98948.22;5027339;28;20221;-66
2023/04/19 08:24:25;;;;;;;0.53;0.53;;;;;;;18.07;97.77;98944.28;5021072;28;20615;-67
2023/04/19 08:26:53;;;;;;;0.50;0.50;;;;;;;18.08;97.40;98948.56;5020609;28;20272;-66
2023/04/19 08:29:20;;;;;;;0.40;0.40;;;;;;;17.86;94.48;98940.56;5024939;28;20482;-66
2023/04/19 08:31:49;;;;;;;0.47;0.47;;;;;;;17.80;94.09;98945.22;5024961;28;20199;-66
2023/04/19 08:34:16;;;;;;;0.60;0.60;;;;;;;17.63;93.50;98945.53;5011065;28;20203;-65
2023/04/19 08:36:44;;;;;;;0.57;0.57;;;;;;;17.50;96.09;98947.22;5011369;28;20204;-66
2023/04/19 08:39:12;;;;;;;0.40;0.40;;;;;;;17.43;95.64;98938.19;5018109;28;20216;-66
2023/04/19 08:41:40;;;;;;;0.50;0.50;;;;;;;17.40;96.89;98943.56;5010040;28;20304;-66
2023/04/19 08:44:07;;;;;;;0.40;0.40;;;;;;;17.33;95.23;98937.94;5018697;28;20209;-66
2023/04/19 08:46:34;;;;;;;0.50;0.50;;;;;;;17.29;95.75;98933.06;5032921;28;20202;-66
2023/04/19 08:49:05;;;;;;;0.40;0.40;;;;;;;17.34;94.97;98925.84;5018638;28;20209;-66
2023/04/19 08:51:32;;;;;;;0.50;0.50;;;;;;;17.57;95.87;98932.97;5013424;28;20239;-66
2023/04/19 08:54:01;;;;;;;0.40;0.40;;;;;;;17.78;96.84;98926.34;5022064;28;20709;-66
2023/04/19 08:56:28;;;;;;;0.40;0.40;;;;;;;18.09;97.25;98932.06;5014968;28;20198;-66
2023/04/19 08:58:55;;;;;;;0.50;0.50;;;;;;;18.31;93.07;98935.69;5021837;28;20744;-66
2023/04/19 09:01:21;;;;;;;0.50;0.50;;;;;;;18.37;92.03;98931.81;5014721;28;20211;-65
2023/04/19 09:03:49;;;;;;;0.50;0.50;;;;;;;18.48;92.13;98924.09;5019125;28;20759;-66
2023/04/19 09:06:17;;;;;;;0.57;0.57;;;;;;;18.71;91.19;98935.50;5033280;28;20276;-66
2023/04/19 09:08:43;;;;;;;0.57;0.57;;;;;;;18.89;90.42;98929.03;5014755;28;20208;-66
2023/04/19 09:11:10;;;;;;;0.47;0.47;;;;;;;19.01;88.84;98933.34;5014850;28;20209;-66
2023/04/19 09:13:39;;;;;;;0.40;0.40;;;;;;;19.12;88.52;98927.38;5022640;28;20199;-66
2023/04/19 09:16:07;;;;;;;0.37;0.37;;;;;;;19.27;88.44;98928.84;5028918;28;20734;-67
2023/04/19 09:18:53;;;;;;;0.50;0.50;;;;;;;19.48;92.07;98911.72;5034209;28;20731;-66
2023/04/19 09:21:29;;;;;;;0.50;0.50;;;;;;;19.77;88.57;98925.94;5034293;28;20199;-66
2023/04/19 09:23:56;;;;;;;0.57;0.57;;;;;;;20.02;85.72;98931.91;5014599;28;20286;-66
2023/04/19 09:26:23;;;;;;;0.30;0.30;;;;;;;20.15;83.15;98930.03;5014622;28;20260;-67
2023/04/19 09:28:56;;;;;;;0.40;0.40;;;;;;;20.43;79.33;98937.41;5014349;28;20196;-66
2023/04/19 09:31:23;;;;;;;0.30;0.30;;;;;;;20.52;77.12;98931.47;5014438;28;20258;-66
2023/04/19 09:33:50;;;;;;;0.37;0.37;;;;;;;20.54;78.32;98928.75;5015421;28;20232;-66
2023/04/19 09:36:29;;;;;;;0.40;0.40;;;;;;;20.69;79.03;98923.16;5014316;28;20209;-66
2023/04/19 09:38:57;;;;;;;0.37;0.37;;;;;;;20.84;78.85;98929.75;5025896;28;20227;-66
2023/04/19 09:41:24;;;;;;;0.40;0.40;;;;;;;20.94;72.12;98928.06;5020534;28;20210;-66
2023/04/19 09:43:51;;;;;;;0.33;0.33;;;;;;;20.98;75.83;98923.44;5017225;28;20637;-66
2023/04/19 09:46:31;;;;;;;0.37;0.37;;;;;;;21.05;77.06;98924.63;5033794;28;20208;-66
2023/04/19 09:49:18;;;;;;;0.40;0.40;;;;;;;21.06;77.36;98920.25;5033630;28;20232;-67
2023/04/19 09:51:48;;;;;;;0.30;0.30;;;;;;;21.06;76.11;98920.25;5031958;28;20284;-66
2023/04/19 09:54:16;;;;;;;0.50;0.50;;;;;;;20.97;73.87;98918.38;5013487;28;20202;-66
2023/04/19 09:56:43;;;;;;;0.40;0.40;;;;;;;20.90;78.86;98908.41;5013849;28;20594;-65
2023/04/19 09:59:11;;;;;;;0.40;0.40;;;;;;;20.79;77.01;98905.03;5013869;28;20256;-67
2023/04/19 10:01:40;;;;;;;0.40;0.40;;;;;;;20.80;78.44;98899.72;5017124;28;20590;-66
2023/04/19 10:04:07;;;;;;;0.28;0.28;;;;;;;20.90;78.50;98900.59;5018193;28;20442;-67
2023/04/19 10:06:36;;;;;;;0.30;0.30;;;;;;;21.04;81.13;98896.88;5026246;28;20473;-67
2023/04/19 10:09:05;;;;;;;0.30;0.30;;;;;;;21.45;78.63;98898.78;5024078;28;20693;-67
2023/04/19 10:11:37;;;;;;;0.30;0.30;;;;;;;21.44;68.39;98897.13;5023211;28;20213;-67
2023/04/19 10:14:05;;;;;;;0.40;0.40;;;;;;;21.44;71.66;98899.72;5017861;28;20204;-67
2023/04/19 10:16:33;;;;;;;0.40;0.40;;;;;;;21.63;72.58;98901.63;5030020;28;20559;-67
2023/04/19 10:19:01;;;;;;;0.40;0.40;;;;;;;21.73;71.46;98905.13;5015663;28;20264;-67
2023/04/19 10:21:29;;;;;;;0.63;0.63;;;;;;;21.86;66.74;98908.34;5027868;28;20225;-67
2023/04/19 10:23:57;;;;;;;0.30;0.30;;;;;;;21.93;62.64;98902.53;5023614;28;20206;-67
2023/04/19 10:26:25;;;;;;;0.30;0.30;;;;;;;21.65;60.11;98891.91;5022317;28;20267;-67
2023/04/19 10:28:55;;;;;;;0.40;0.40;;;;;;;21.20;59.49;98888.69;5025260;28;20198;-67
2023/04/19 10:31:22;;;;;;;0.40;0.40;;;;;;;21.06;62.63;98884.59;5023829;28;20241;-67
2023/04/19 10:33:51;;;;;;;0.40;0.40;;;;;;;21.19;62.70;98874.00;5019489;28;20257;-67
2023/04/19 10:36:18;;;;;;;0.50;0.50;;;;;;;21.27;66.65;98871.59;5026682;28;20241;-66
2023/04/19 10:38:47;;;;;;;0.40;0.40;;;;;;;21.40;63.13;98882.66;5028875;28;20691;-66
2023/04/19 10:41:14;;;;;;;0.30;0.30;;;;;;;21.58;63.64;98875.94;5026219;28;20228;-66
2023/04/19 10:43:45;;;;;;;0.40;0.40;;;;;;;21.66;62.98;98883.94;5024667;28;20214;-66
2023/04/19 10:46:15;;;;;;;0.30;0.30;;;;;;;21.92;62.14;98880.00;5025354;28;20646;-65
2023/04/19 10:48:54;;;;;;;0.30;0.30;;;;;;;22.10;65.54;98876.78;5017496;28;20209;-66
2023/04/19 10:51:27;;;;;;;0.30;0.30;;;;;;;22.10;64.33;98871.56;5026025;28;20609;-65
2023/04/19 10:53:56;;;;;;;0.30;0.30;;;;;;;22.17;62.09;98867.44;5026472;28;20676;-65
2023/04/19 10:57:00;;;;;;;0.40;0.40;;;;;;;22.18;55.98;98877.78;5018945;28;20201;-65
2023/04/19 10:59:30;;;;;;;0.40;0.40;;;;;;;22.09;57.44;98864.69;5022693;28;20205;-66
2023/04/19 11:01:59;;;;;;;0.37;0.37;;;;;;;21.86;58.29;98864.00;5022633;28;20201;-66
2023/04/19 11:05:10;;;;;;;0.80;0.80;;;;;;;21.56;58.25;98867.41;5022316;28;20585;-64
2023/04/19 11:07:41;;;;;;;0.30;0.30;;;;;;;21.63;63.12;98867.72;5030380;28;20658;-65
2023/04/19 11:10:10;;;;;;;0.40;0.40;;;;;;;21.70;59.80;98863.63;5032118;28;20198;-66
2023/04/19 11:12:37;;;;;;;0.37;0.37;;;;;;;21.55;59.43;98865.72;5030023;28;20197;-65
2023/04/19 11:15:08;;;;;;;0.30;0.30;;;;;;;21.18;59.25;98854.09;5030820;28;20210;-66
2023/04/19 11:17:37;;;;;;;0.33;0.33;;;;;;;21.07;60.12;98851.50;5030774;28;20212;-65
2023/04/19 11:20:07;;;;;;;0.30;0.30;;;;;;;21.07;61.56;98833.25;5031672;28;20193;-65
2023/04/19 11:22:35;;;;;;;0.50;0.50;;;;;;;21.01;62.93;98854.59;5031419;28;20282;-66
2023/04/19 11:25:09;;;;;;;0.50;0.50;;;;;;;20.79;61.17;98843.34;5031674;28;20208;-66
2023/04/19 11:27:37;;;;;;;0.40;0.40;;;;;;;20.74;60.99;98853.28;5030399;28;20207;-64
2023/04/19 11:30:08;;;;;;;0.40;0.40;;;;;;;20.69;62.43;98852.00;5031460;28;20193;-65
2023/04/19 11:32:35;;;;;;;0.40;0.40;;;;;;;20.80;61.38;98851.97;5031504;28;20197;-66
2023/04/19 11:35:08;;;;;;;0.40;0.40;;;;;;;20.94;63.78;98849.91;5031679;28;20688;-66